Date,TemperatureHighF,TemperatureAvgF,TemperatureLowF,DewpointHighF,DewpointAvgF,DewpointLowF,HumidityHigh,HumidityAvg,HumidityLow,PressureMaxIn,PressureMinIn,WindSpeedMaxMPH,WindSpeedAvgMPH,GustSpeedMaxMPH,PrecipitationSumIn
2013-3-1,30.8,28.0,25.6,28.0,23.1,19.9,89,82,77,30.14,29.98,12,1,12,0.00
2013-3-2,29.0,25.7,23.8,23.6,20.4,17.9,87,80,74,30.13,30.08,12,2,12,0.00
2013-3-3,30.2,23.4,15.7,18.7,16.4,12.8,94,75,54,30.12,30.05,14,2,14,0.00
2013-3-4,36.8,25.0,12.4,21.9,17.9,10.8,96,76,49,30.22,30.12,14,1,14,0.00
2013-3-5,32.9,27.9,22.4,26.0,23.8,19.8,94,84,72,30.15,29.81,22,4,22,0.00
2013-3-6,41.6,33.3,26.0,30.7,27.6,23.6,91,80,64,30.25,29.82,16,2,16,0.00
2013-3-7,39.4,33.7,24.5,31.5,27.5,19.9,91,78,65,30.44,30.24,12,1,12,0.00
2013-3-8,45.9,31.7,19.0,28.1,23.5,17.8,96,74,47,30.54,30.43,8,1,8,0.00
2013-3-9,50.2,36.1,21.7,34.8,29.3,20.7,98,78,53,30.45,30.05,12,1,12,0.00
2013-3-10,65.7,52.9,33.8,46.7,39.8,30.9,91,63,41,30.05,29.80,21,2,21,0.01
2013-3-11,55.4,48.9,36.9,49.3,43.8,32.6,94,83,68,29.82,29.49,23,5,23,0.32
2013-3-12,36.9,33.9,29.8,33.1,28.8,25.0,88,81,71,29.98,29.76,19,4,19,0.00
2013-3-13,32.1,29.1,25.8,28.4,21.3,17.0,91,73,60,30.27,29.93,21,6,21,0.00
2013-3-14,41.4,31.2,21.7,24.9,20.8,17.1,84,66,46,30.33,30.13,20,3,26,0.00
2013-3-15,44.4,36.9,30.6,38.6,32.2,23.7,97,83,70,30.13,29.83,14,2,14,0.07
2013-3-16,35.2,31.3,29.6,34.4,29.3,24.5,97,92,80,30.10,29.74,15,2,15,0.05
2013-3-17,32.0,28.1,22.9,25.6,20.9,17.3,87,75,56,30.29,30.09,16,2,16,0.01
2013-3-18,37.6,32.8,27.6,37.1,30.3,22.0,98,91,78,30.17,29.59,17,3,17,0.06
2013-3-19,35.3,28.3,22.9,32.6,18.9,15.7,90,68,53,30.01,29.70,27,7,27,0.00
2013-3-20,30.1,25.2,17.0,20.1,15.4,10.6,82,66,52,30.01,29.96,20,5,20,0.00
2013-3-21,32.6,24.5,15.6,23.2,18.0,12.1,87,77,62,30.01,29.95,19,5,19,0.00
2013-3-22,42.2,31.6,24.0,24.4,21.2,18.0,90,66,47,30.07,29.98,16,4,16,0.00
2013-3-23,40.3,29.3,17.5,26.7,22.6,16.2,96,78,52,30.13,30.03,9,1,9,0.00
2013-3-24,35.1,30.2,22.2,28.2,24.9,19.7,96,81,62,30.06,29.60,22,3,22,0.00
2013-3-25,36.6,33.0,29.7,33.7,29.5,25.6,95,87,76,29.94,29.54,20,2,20,0.15
2013-3-26,42.2,36.3,32.5,33.1,30.2,28.6,87,79,60,30.17,29.94,14,3,15,0.02
2013-3-27,45.3,38.1,31.0,31.0,27.1,23.8,90,66,44,30.26,30.16,22,5,22,0.00
2013-3-28,50.9,40.7,28.9,28.6,26.2,22.9,79,58,39,30.31,30.25,17,2,17,0.00
2013-3-29,52.2,38.7,25.2,26.6,23.4,20.0,88,58,30,30.33,30.22,13,2,13,0.00
2013-3-30,56.4,41.9,23.4,32.4,26.3,19.4,91,58,28,30.26,29.94,12,1,12,0.00
2013-3-31,60.7,48.2,39.8,46.3,36.5,31.0,90,66,36,29.94,29.65,20,3,20,0.01